Phillips Ranch, California
Current Conditions -  °F | °C
As of 3:53 PM on Sunday 25 Jan 2015 (Local Time) from KCNO Reporting Station
Broken Clouds Broken Clouds  
Wind Chill: 76°   Ceiling: 10000
Heat Index: 76°   Visibility: 10mi
Dew Point: 33°   Wind: 3mph
Humidity: 21%   Direction: 60°ENE
Pressure: 29.98"   Gusts: NA
Location:  34.0419°N, 117.754°W
Report Text: KCNO 252353Z 06003KT 10SM BKN100 24/01 A2998 RMK AO2 SLP148 T02440006 10278 20233 55001 $
Loading
Personal Weather Stations






























Interactive Weather Map New forecast layout! Learn more

10-Day Weather Forecast

Advertisements
Track Severe Weather on mobile